Nelson, Canada
Current Conditions -  °F | °C
As of 8:00 AM on Thursday 23 Oct 2014 (Local Time) from CYCG Reporting Station
Broken Clouds Broken Clouds  
Wind Chill:   Ceiling: 9400
Heat Index:   Visibility: 15mi
Dew Point:   Wind: 6mph
Humidity: 100%   Direction: 160°SSE
Pressure: 29.75"   Gusts: NA
Location:  49.48°N, 117.28°W
Report Text: CYCG 231500Z 16005KT 15SM FEW005 SCT035 BKN094 BKN180 09/09 A2975 RMK SF1SC2AC2AC2 PRESRR SLP082
Loading
Personal Weather Stations






























Interactive Weather Map
Tropical Storm Tracking
New forecast layout! Learn more

10-Day Weather Forecast

Advertisements
Track Severe Weather on mobile